Flugplatz Alsfeld (Wetzelbach), Vogelsbergkreis (UL)

Hier findest Du alle Informationen zum Flugplatz Alsfeld (Wetzelbach), Vogelsbergkreis (UL).

Informationen für Piloten zum Flugplatz Alsfeld (Wetzelbach), Vogelsbergkreis

Hier findest Du alle relevanten Informationen, die Du als Pilot benötigst, um Alsfeld (Wetzelbach), Vogelsbergkreis anzufliegen.

Flugplatz: Alsfeld (Wetzelbach), Vogelsbergkreis ICAO-Code: UL Flugplatz
Frequenz Turm: 132,760 Mhz GAFOR Gebiet: 43
Frequenz Ground: 132,760 Mhz Mogas: nein
Platzrunde: NW 1700 ft Landegebühr: -
Platzhöhe: - Sunrise: 05:21 Uhr UTC
Pisten: 06/24 - 650 m x 30 m, GRAS Sunset: 17:03 Uhr UTC

Mitglieder, die in Alsfeld (Wetzelbach), Vogelsbergkreis fliegen

Flugwetter am Flugplatz Alsfeld (Wetzelbach), Vogelsbergkreis

Die METAR Information stammen aus EDVK (73.44 km entfernt).

METAR Code:
2022/09/04 19:20
EDVK 041920Z VRB02KT CAVOK 23/11 Q1020

Flugschulen am Flugplatz Alsfeld (Wetzelbach), Vogelsbergkreis

Am Flugplatz Alsfeld (Wetzelbach), Vogelsbergkreis gibt es 2 Flugschulen.

Benachbarte Flugplätze und Flugschulen

Es gibt 14 weitere Flugplätze in einem Umkreis von 50 km um den Flugplatz Alsfeld (Wetzelbach), Vogelsbergkreis.

Jetzt anmelden

Passwort vergessen

Umfrage Archiv

Sendet Ihr ADS-B und/oder FLARM?

Ja
84.1 %
Nein
15.9 %
Stimmen: 227 | Diskussion
Anzeige: Roland Aircraft
Statistik Alle Mitglieder

Aktuell sind 47 Besucher online.

Anzeige: ULPower Aero Engines Anzeige: Pocket FMS